createdAt,value
2016-04-22T00:00:26.429Z,1015.35
2016-04-22T00:01:26.478Z,1015.34
2016-04-22T00:02:26.528Z,1015.29
2016-04-22T00:03:26.577Z,1015.35
2016-04-22T00:04:26.636Z,1015.32
2016-04-22T00:05:26.686Z,1015.35
2016-04-22T00:06:26.736Z,1015.33
2016-04-22T00:07:26.786Z,1015.33
2016-04-22T00:08:26.834Z,1015.27
2016-04-22T00:09:26.884Z,1015.31
2016-04-22T00:10:26.934Z,1015.33
2016-04-22T00:11:26.983Z,1015.32
2016-04-22T00:12:27.033Z,1015.32
2016-04-22T00:13:27.083Z,1015.35
2016-04-22T00:14:27.148Z,1015.27
2016-04-22T00:15:27.197Z,1015.33
2016-04-22T00:16:27.247Z,1015.34
2016-04-22T00:17:27.296Z,1015.36
2016-04-22T00:18:27.347Z,1015.37
2016-04-22T00:19:27.396Z,1015.36
2016-04-22T00:20:27.446Z,1015.31
2016-04-22T00:21:27.494Z,1015.35
2016-04-22T00:22:27.560Z,1015.39
2016-04-22T00:23:27.610Z,1015.33
2016-04-22T00:24:27.660Z,1015.33
2016-04-22T00:25:27.709Z,1015.32
2016-04-22T00:26:27.758Z,1015.31
2016-04-22T00:27:27.808Z,1015.29
2016-04-22T00:28:27.873Z,1015.33
2016-04-22T00:29:27.923Z,1015.33
2016-04-22T00:30:27.973Z,1015.3
2016-04-22T00:31:28.022Z,1015.28
2016-04-22T00:32:28.071Z,1015.28
2016-04-22T00:33:28.121Z,1015.25
2016-04-22T00:34:28.170Z,1015.21
2016-04-22T00:35:28.220Z,1015.22
2016-04-22T00:36:28.271Z,1015.19
2016-04-22T00:37:28.321Z,1015.23
2016-04-22T00:38:28.370Z,1015.2
2016-04-22T00:39:28.435Z,1015.17
2016-04-22T00:40:28.485Z,1015.13
2016-04-22T00:41:28.535Z,1015.12
2016-04-22T00:42:28.584Z,1015.12
2016-04-22T00:43:28.632Z,1015.11
2016-04-22T00:44:28.683Z,1015.09
2016-04-22T00:45:28.732Z,1015.07
2016-04-22T00:46:28.782Z,1015.09
2016-04-22T00:47:28.847Z,1015.04
2016-04-22T00:48:28.896Z,1015.09
2016-04-22T00:49:28.961Z,1015.05
2016-04-22T00:50:28.996Z,1015.06
2016-04-22T00:51:29.045Z,1015.01
2016-04-22T00:52:29.095Z,1015.02
2016-04-22T00:53:29.145Z,1015.05
2016-04-22T00:54:29.210Z,1015.02
2016-04-22T00:55:29.259Z,1015.03
2016-04-22T00:56:29.308Z,1014.98
2016-04-22T00:57:29.358Z,1014.95
2016-04-22T00:58:29.408Z,1014.95
2016-04-22T00:59:29.458Z,1014.99
2016-04-22T01:00:29.507Z,1015.05
2016-04-22T01:01:29.556Z,1015.03
2016-04-22T01:02:29.605Z,1015.06
2016-04-22T01:03:29.671Z,1015.06
2016-04-22T01:04:29.721Z,1015.08
2016-04-22T01:05:29.771Z,1015.12
2016-04-22T01:06:29.819Z,1015.16
2016-04-22T01:07:29.869Z,1015.15
2016-04-22T01:08:29.919Z,1015.18
2016-04-22T01:09:29.984Z,1015.12
2016-04-22T01:10:30.018Z,1015.09
2016-04-22T01:11:30.083Z,1015.07
2016-04-22T01:12:30.118Z,1015.1
2016-04-22T01:13:30.182Z,1015.1
2016-04-22T01:14:30.232Z,1015.08
2016-04-22T01:15:30.282Z,1015.08
2016-04-22T01:16:30.331Z,1015.08
2016-04-22T01:17:30.381Z,1015.09
2016-04-22T01:18:30.446Z,1015.04
2016-04-22T01:19:30.479Z,1015.08
2016-04-22T01:20:30.545Z,1015.04
2016-04-22T01:21:30.595Z,1015.07
2016-04-22T01:22:30.645Z,1015.03
2016-04-22T01:23:30.694Z,1015.06
2016-04-22T01:24:30.743Z,1015.07
2016-04-22T01:25:30.793Z,1015.07
2016-04-22T01:26:30.842Z,1015.09
2016-04-22T01:27:30.892Z,1015.04
2016-04-22T01:28:30.942Z,1015.05
2016-04-22T01:29:31.006Z,1015.01
2016-04-22T01:30:31.056Z,1015.01
2016-04-22T01:31:31.122Z,1014.99
2016-04-22T01:32:31.155Z,1014.98
2016-04-22T01:33:31.205Z,1014.97
2016-04-22T01:34:31.255Z,1014.98
2016-04-22T01:35:31.305Z,1014.97
2016-04-22T01:36:31.354Z,1014.98
2016-04-22T01:37:31.419Z,1014.96
2016-04-22T01:38:31.469Z,1014.96
2016-04-22T01:39:31.518Z,1015
2016-04-22T01:40:31.568Z,1015
2016-04-22T01:41:31.618Z,1014.98
2016-04-22T01:42:31.667Z,1015.02
2016-04-22T01:43:31.716Z,1015.08
2016-04-22T01:44:31.782Z,1015.07
2016-04-22T01:45:31.831Z,1015.05
2016-04-22T01:46:31.881Z,1015.13
2016-04-22T01:47:31.930Z,1015.14
2016-04-22T01:48:31.980Z,1015.16
2016-04-22T01:49:32.029Z,1015.19
2016-04-22T01:50:32.079Z,1015.24
2016-04-22T01:51:32.129Z,1015.24
2016-04-22T01:52:32.178Z,1015.19
2016-04-22T01:53:32.228Z,1015.15
2016-04-22T01:54:32.293Z,1015.13
2016-04-22T01:55:32.343Z,1015.13
2016-04-22T01:56:32.392Z,1015.13
2016-04-22T01:57:32.442Z,1015.16
2016-04-22T01:58:32.491Z,1015.18
2016-04-22T01:59:32.541Z,1015.16
2016-04-22T02:00:32.590Z,1015.16
2016-04-22T02:01:32.656Z,1015.12
2016-04-22T02:02:32.705Z,1015.1
2016-04-22T02:03:32.755Z,1015.17
2016-04-22T02:04:32.805Z,1015.17
2016-04-22T02:05:32.853Z,1015.18
2016-04-22T02:06:32.903Z,1015.14
2016-04-22T02:07:32.953Z,1015.12
2016-04-22T02:08:33.003Z,1015.12
2016-04-22T02:09:33.052Z,1015.15
2016-04-22T02:10:33.102Z,1015.13
2016-04-22T02:11:33.152Z,1015.08
2016-04-22T02:12:33.216Z,1015.13
2016-04-22T02:13:33.266Z,1015.12
2016-04-22T02:14:33.316Z,1015.14
2016-04-22T02:15:33.365Z,1015.17
2016-04-22T02:16:33.415Z,1015.12
2016-04-22T02:17:33.465Z,1015.18
2016-04-22T02:18:33.513Z,1015.18
2016-04-22T02:19:33.579Z,1015.2
2016-04-22T02:20:33.629Z,1015.17
2016-04-22T02:21:33.679Z,1015.22
2016-04-22T02:22:33.728Z,1015.22
2016-04-22T02:23:33.777Z,1015.22
2016-04-22T02:24:33.842Z,1015.19
2016-04-22T02:25:33.876Z,1015.22
2016-04-22T02:26:33.926Z,1015.23
2016-04-22T02:27:33.992Z,1015.27
2016-04-22T02:28:34.040Z,1015.2
2016-04-22T02:29:34.090Z,1015.24
2016-04-22T02:30:34.140Z,1015.23
2016-04-22T02:31:34.189Z,1015.21
2016-04-22T02:32:34.239Z,1015.21
2016-04-22T02:33:34.288Z,1015.22
2016-04-22T02:34:34.338Z,1015.27
2016-04-22T02:35:34.388Z,1015.26
2016-04-22T02:36:34.437Z,1015.2
2016-04-22T02:37:34.486Z,1015.22
2016-04-22T02:38:34.536Z,1015.22
2016-04-22T02:39:34.602Z,1015.26
2016-04-22T02:40:34.651Z,1015.28
2016-04-22T02:41:34.700Z,1015.26
2016-04-22T02:42:34.750Z,1015.25
2016-04-22T02:43:34.800Z,1015.24
2016-04-22T02:44:34.849Z,1015.26
2016-04-22T02:45:34.915Z,1015.28
2016-04-22T02:46:34.963Z,1015.24
2016-04-22T02:47:34.998Z,1015.22
2016-04-22T02:48:35.063Z,1015.22
2016-04-22T02:49:35.112Z,1015.24
2016-04-22T02:50:35.162Z,1015.28
2016-04-22T02:51:35.212Z,1015.24
2016-04-22T02:52:35.262Z,1015.25
2016-04-22T02:53:35.311Z,1015.25
2016-04-22T02:54:35.376Z,1015.23
2016-04-22T02:55:35.409Z,1015.28
2016-04-22T02:56:35.476Z,1015.29
2016-04-22T02:57:35.526Z,1015.27
2016-04-22T02:58:35.574Z,1015.25
2016-04-22T02:59:35.624Z,1015.26
2016-04-22T03:00:35.673Z,1015.3
2016-04-22T03:01:35.723Z,1015.24
2016-04-22T03:02:35.773Z,1015.23
2016-04-22T03:03:35.838Z,1015.24
2016-04-22T03:04:35.872Z,1015.22
2016-04-22T03:05:35.936Z,1015.19
2016-04-22T03:06:35.986Z,1015.15
2016-04-22T03:07:36.036Z,1015.12
2016-04-22T03:08:36.085Z,1015.12
2016-04-22T03:09:36.150Z,1015.1
2016-04-22T03:10:36.185Z,1015.08
2016-04-22T03:11:36.235Z,1015.13
2016-04-22T03:12:36.300Z,1015.07
2016-04-22T03:13:36.333Z,1015.11
2016-04-22T03:14:36.399Z,1015.12
2016-04-22T03:15:36.464Z,1015.13
2016-04-22T03:16:36.498Z,1015.11
2016-04-22T03:17:36.547Z,1015.13
2016-04-22T03:18:36.597Z,1015.13
2016-04-22T03:19:36.646Z,1015.09
2016-04-22T03:20:36.696Z,1015.15
2016-04-22T03:21:36.746Z,1015.09
2016-04-22T03:22:36.810Z,1015.08
2016-04-22T03:23:36.860Z,1015.12
2016-04-22T03:24:36.910Z,1015.11
2016-04-22T03:25:36.960Z,1015.09
2016-04-22T03:26:37.010Z,1015.11
2016-04-22T03:27:37.059Z,1015.1
2016-04-22T03:28:37.109Z,1015.13
2016-04-22T03:29:37.158Z,1015.12
2016-04-22T03:30:37.207Z,1015.11
2016-04-22T03:31:37.273Z,1015.12
2016-04-22T03:32:37.322Z,1015.12
2016-04-22T03:33:37.372Z,1015.15
2016-04-22T03:34:37.421Z,1015.14
2016-04-22T03:35:37.470Z,1015.16
2016-04-22T03:36:37.520Z,1015.13
2016-04-22T03:37:37.569Z,1015.17
2016-04-22T03:38:37.620Z,1015.18
2016-04-22T03:39:37.685Z,1015.16
2016-04-22T03:40:37.734Z,1015.19
2016-04-22T03:41:37.784Z,1015.16
2016-04-22T03:42:37.833Z,1015.17
2016-04-22T03:43:37.883Z,1015.21
2016-04-22T03:44:37.933Z,1015.19
2016-04-22T03:45:37.982Z,1015.16
2016-04-22T03:46:38.032Z,1015.17
2016-04-22T03:47:38.082Z,1015.18
2016-04-22T03:48:38.146Z,1015.14
2016-04-22T03:49:38.196Z,1015.16
2016-04-22T03:50:38.245Z,1015.16
2016-04-22T03:51:38.295Z,1015.16
2016-04-22T03:52:38.345Z,1015.16
2016-04-22T03:53:38.394Z,1015.15
2016-04-22T03:54:38.444Z,1015.15
2016-04-22T03:55:38.494Z,1015.15
2016-04-22T03:56:38.543Z,1015.14
2016-04-22T03:57:38.593Z,1015.12
2016-04-22T03:58:38.642Z,1015.12
2016-04-22T03:59:38.707Z,1015.1
2016-04-22T04:00:38.757Z,1015.13
2016-04-22T04:01:38.806Z,1015.11
2016-04-22T04:02:38.856Z,1015.12
2016-04-22T04:03:38.905Z,1015.11
2016-04-22T04:04:38.955Z,1015.16
2016-04-22T04:05:39.005Z,1015.13
2016-04-22T04:06:39.069Z,1015.17
2016-04-22T04:07:39.104Z,1015.17
2016-04-22T04:08:39.153Z,1015.15
2016-04-22T04:09:39.219Z,1015.14
2016-04-22T04:10:39.269Z,1015.16
2016-04-22T04:11:39.317Z,1015.13
2016-04-22T04:12:39.367Z,1015.12
2016-04-22T04:13:39.416Z,1015.13
2016-04-22T04:14:39.482Z,1015.08
2016-04-22T04:15:39.516Z,1015.09
2016-04-22T04:16:39.580Z,1015.08
2016-04-22T04:17:39.615Z,1015.08
2016-04-22T04:18:39.680Z,1015.08
2016-04-22T04:19:39.729Z,1015.09
2016-04-22T04:20:39.779Z,1015.11
2016-04-22T04:21:39.829Z,1015.1
2016-04-22T04:22:39.908Z,1015.15
2016-04-22T04:23:39.996Z,1015.14
2016-04-22T04:24:40.070Z,1015.18
2016-04-22T04:25:40.158Z,1015.16
2016-04-22T04:26:40.263Z,1015.19
2016-04-22T04:27:40.341Z,1015.16
2016-04-22T04:28:40.405Z,1015.18
2016-04-22T04:29:40.469Z,1015.16
2016-04-22T04:30:40.532Z,1015.14
2016-04-22T04:31:40.596Z,1015.13
2016-04-22T04:32:40.656Z,1015.14
2016-04-22T04:33:40.711Z,1015.11
2016-04-22T04:34:40.781Z,1015.15
2016-04-22T04:35:40.835Z,1015.12
2016-04-22T04:36:40.891Z,1015.14
2016-04-22T04:37:40.943Z,1015.13
2016-04-22T04:38:40.995Z,1015.14
2016-04-22T04:39:41.047Z,1015.13
2016-04-22T04:40:41.098Z,1015.1
2016-04-22T04:41:41.150Z,1015.11
2016-04-22T04:42:41.200Z,1015.1
2016-04-22T04:43:41.250Z,1015.14
2016-04-22T04:44:41.300Z,1015.14
2016-04-22T04:45:41.350Z,1015.15
2016-04-22T04:46:41.416Z,1015.17
2016-04-22T04:47:41.465Z,1015.14
2016-04-22T04:48:41.516Z,1015.14
2016-04-22T04:49:41.566Z,1015.1
2016-04-22T04:50:41.616Z,1015.15
2016-04-22T04:51:41.666Z,1015.13
2016-04-22T04:52:41.716Z,1015.15
2016-04-22T04:53:41.781Z,1015.16
2016-04-22T04:54:41.830Z,1015.17
2016-04-22T04:55:41.880Z,1015.17
2016-04-22T04:56:41.929Z,1015.17
2016-04-22T04:57:41.979Z,1015.16
2016-04-22T04:58:42.029Z,1015.14
2016-04-22T04:59:42.078Z,1015.13
2016-04-22T05:00:42.127Z,1015.14
2016-04-22T05:01:42.193Z,1015.14
2016-04-22T05:02:42.226Z,1015.15
2016-04-22T05:03:42.276Z,1015.18
2016-04-22T05:04:42.342Z,1015.16
2016-04-22T05:05:42.376Z,1015.2
2016-04-22T05:06:42.441Z,1015.16
2016-04-22T05:07:42.490Z,1015.17
2016-04-22T05:08:42.540Z,1015.16
2016-04-22T05:09:42.590Z,1015.13
2016-04-22T05:10:42.640Z,1015.17
2016-04-22T05:11:42.690Z,1015.15
2016-04-22T05:12:42.739Z,1015.19
2016-04-22T05:13:42.788Z,1015.18
2016-04-22T05:14:42.854Z,1015.18
2016-04-22T05:15:42.904Z,1015.18
2016-04-22T05:16:42.953Z,1015.16
2016-04-22T05:17:43.003Z,1015.16
2016-04-22T05:18:43.052Z,1015.13
2016-04-22T05:19:43.102Z,1015.13
2016-04-22T05:20:43.151Z,1015.1
2016-04-22T05:21:43.201Z,1015.13
2016-04-22T05:22:43.251Z,1015.14
2016-04-22T05:23:43.300Z,1015.14
2016-04-22T05:24:43.350Z,1015.15
2016-04-22T05:25:43.414Z,1015.15
2016-04-22T05:26:43.464Z,1015.18
2016-04-22T05:27:43.514Z,1015.18
2016-04-22T05:28:43.564Z,1015.24
2016-04-22T05:29:43.613Z,1015.26
2016-04-22T05:30:43.663Z,1015.21
2016-04-22T05:31:43.712Z,1015.19
2016-04-22T05:32:43.761Z,1015.22
2016-04-22T05:33:43.811Z,1015.19
2016-04-22T05:34:43.861Z,1015.2
2016-04-22T05:35:43.926Z,1015.19
2016-04-22T05:36:43.975Z,1015.15
2016-04-22T05:37:44.025Z,1015.16
2016-04-22T05:38:44.075Z,1015.15
2016-04-22T05:39:44.125Z,1015.18
2016-04-22T05:40:44.173Z,1015.2
2016-04-22T05:41:44.239Z,1015.17
2016-04-22T05:42:44.273Z,1015.17
2016-04-22T05:43:44.338Z,1015.2
2016-04-22T05:44:44.388Z,1015.16
2016-04-22T05:45:44.437Z,1015.14
2016-04-22T05:46:44.487Z,1015.17
2016-04-22T05:47:44.537Z,1015.19
2016-04-22T05:48:44.586Z,1015.22
2016-04-22T05:49:44.635Z,1015.2
2016-04-22T05:50:44.684Z,1015.2
2016-04-22T05:51:44.734Z,1015.19
2016-04-22T05:52:44.784Z,1015.19
2016-04-22T05:53:44.833Z,1015.21
2016-04-22T05:54:44.883Z,1015.17
2016-04-22T05:55:44.948Z,1015.16
2016-04-22T05:56:44.998Z,1015.21
2016-04-22T05:57:45.047Z,1015.19
2016-04-22T05:58:45.098Z,1015.21
2016-04-22T05:59:45.147Z,1015.21
2016-04-22T06:00:45.197Z,1015.19
2016-04-22T06:01:45.246Z,1015.25
2016-04-22T06:02:45.311Z,1015.18
2016-04-22T06:03:45.345Z,1015.18
2016-04-22T06:04:45.411Z,1015.16
2016-04-22T06:05:45.460Z,1015.12
2016-04-22T06:06:45.510Z,1015.13
2016-04-22T06:07:45.559Z,1015.13
2016-04-22T06:08:45.609Z,1015.13
2016-04-22T06:09:45.657Z,1015.16
2016-04-22T06:10:45.707Z,1015.15
2016-04-22T06:11:45.757Z,1015.16
2016-04-22T06:12:45.807Z,1015.13
2016-04-22T06:13:45.871Z,1015.11
2016-04-22T06:14:45.922Z,1015.17
2016-04-22T06:15:45.970Z,1015.2
2016-04-22T06:16:46.020Z,1015.17
2016-04-22T06:17:46.070Z,1015.23
2016-04-22T06:18:46.120Z,1015.23
2016-04-22T06:19:46.184Z,1015.22
2016-04-22T06:20:46.218Z,1015.21
2016-04-22T06:21:46.268Z,1015.25
2016-04-22T06:22:46.333Z,1015.24
2016-04-22T06:23:46.383Z,1015.22
2016-04-22T06:24:46.433Z,1015.24
2016-04-22T06:25:46.482Z,1015.22
2016-04-22T06:26:46.532Z,1015.19
2016-04-22T06:27:46.581Z,1015.2
2016-04-22T06:28:46.647Z,1015.17
2016-04-22T06:29:46.680Z,1015.15
2016-04-22T06:30:46.746Z,1015.15
2016-04-22T06:31:46.795Z,1015.15
2016-04-22T06:32:46.845Z,1015.17
2016-04-22T06:33:46.895Z,1015.23
2016-04-22T06:34:46.944Z,1015.24
2016-04-22T06:35:46.994Z,1015.25
2016-04-22T06:36:47.044Z,1015.24
2016-04-22T06:37:47.093Z,1015.28
2016-04-22T06:38:47.142Z,1015.26
2016-04-22T06:39:47.207Z,1015.27
2016-04-22T06:40:47.241Z,1015.29
2016-04-22T06:41:47.291Z,1015.3
2016-04-22T06:42:47.356Z,1015.25
2016-04-22T06:43:47.405Z,1015.27
2016-04-22T06:44:47.455Z,1015.32
2016-04-22T06:45:47.505Z,1015.27
2016-04-22T06:46:47.554Z,1015.26
2016-04-22T06:47:47.604Z,1015.3
2016-04-22T06:48:47.654Z,1015.33
2016-04-22T06:49:47.704Z,1015.32
2016-04-22T06:50:47.753Z,1015.28
2016-04-22T06:51:47.818Z,1015.33
2016-04-22T06:52:47.851Z,1015.33
2016-04-22T06:53:47.918Z,1015.31
2016-04-22T06:54:47.966Z,1015.31
2016-04-22T06:55:48.016Z,1015.3
2016-04-22T06:56:48.065Z,1015.27
2016-04-22T06:57:48.115Z,1015.26
2016-04-22T06:58:48.165Z,1015.31
2016-04-22T06:59:48.231Z,1015.31
2016-04-22T07:00:48.280Z,1015.29
2016-04-22T07:01:48.313Z,1015.31
2016-04-22T07:02:48.378Z,1015.28
2016-04-22T07:03:48.413Z,1015.24
2016-04-22T07:04:48.478Z,1015.24
2016-04-22T07:05:48.527Z,1015.21
2016-04-22T07:06:48.577Z,1015.2
2016-04-22T07:07:48.627Z,1015.21
2016-04-22T07:08:48.676Z,1015.2
2016-04-22T07:09:48.725Z,1015.22
2016-04-22T07:10:48.791Z,1015.15
2016-04-22T07:11:48.825Z,1015.13
2016-04-22T07:12:48.891Z,1015.17
2016-04-22T07:13:48.940Z,1015.16
2016-04-22T07:14:48.974Z,1015.1
2016-04-22T07:15:49.038Z,1015.17
2016-04-22T07:16:49.088Z,1015.18
2016-04-22T07:17:49.138Z,1015.12
2016-04-22T07:18:49.187Z,1015.13
2016-04-22T07:19:49.252Z,1015.12
2016-04-22T07:20:49.302Z,1015.13
2016-04-22T07:21:49.351Z,1015.16
2016-04-22T07:22:49.401Z,1015.17
2016-04-22T07:23:49.451Z,1015.16
2016-04-22T07:24:49.500Z,1015.11
2016-04-22T07:25:49.550Z,1015.08
2016-04-22T07:26:49.600Z,1015.11
2016-04-22T07:27:49.648Z,1015.16
2016-04-22T07:28:49.698Z,1015.13
2016-04-22T07:29:49.748Z,1015.09
2016-04-22T07:30:49.798Z,1015.17
2016-04-22T07:31:49.848Z,1015.15
2016-04-22T07:32:49.897Z,1015.14
2016-04-22T07:33:49.961Z,1015.17
2016-04-22T07:34:50.012Z,1015.16
2016-04-22T07:35:50.061Z,1015.16
2016-04-22T07:36:50.111Z,1015.16
2016-04-22T07:37:50.161Z,1015.12
2016-04-22T07:38:50.210Z,1015.17
2016-04-22T07:39:50.260Z,1015.14
2016-04-22T07:40:50.325Z,1015.2
2016-04-22T07:41:50.374Z,1015.21
2016-04-22T07:42:50.408Z,1015.18
2016-04-22T07:43:50.474Z,1015.22
2016-04-22T07:44:50.523Z,1015.15
2016-04-22T07:45:50.572Z,1015.15
2016-04-22T07:46:50.622Z,1015.12
2016-04-22T07:47:50.687Z,1015.16
2016-04-22T07:48:50.737Z,1015.19
2016-04-22T07:49:50.787Z,1015.19
2016-04-22T07:50:50.820Z,1015.18
2016-04-22T07:51:50.885Z,1015.19
2016-04-22T07:52:50.935Z,1015.23
2016-04-22T07:53:50.984Z,1015.24
2016-04-22T07:54:51.034Z,1015.17
2016-04-22T07:55:51.084Z,1015.19
2016-04-22T07:56:51.134Z,1015.16
2016-04-22T07:57:51.184Z,1015.17
2016-04-22T07:58:51.233Z,1015.13
2016-04-22T07:59:51.282Z,1015.13
2016-04-22T08:00:51.348Z,1015.11
2016-04-22T08:01:51.397Z,1015.19
2016-04-22T08:02:51.446Z,1015.19
2016-04-22T08:03:51.496Z,1015.2
2016-04-22T08:04:51.546Z,1015.22
2016-04-22T08:05:51.594Z,1015.23
2016-04-22T08:06:51.645Z,1015.18
2016-04-22T08:07:51.694Z,1015.19
2016-04-22T08:08:51.744Z,1015.18
2016-04-22T08:09:51.809Z,1015.15
2016-04-22T08:10:51.858Z,1015.19
2016-04-22T08:11:51.908Z,1015.17
2016-04-22T08:12:51.958Z,1015.16
2016-04-22T08:13:52.007Z,1015.2
2016-04-22T08:14:52.057Z,1015.16
2016-04-22T08:15:52.107Z,1015.13
2016-04-22T08:16:52.155Z,1015.1
2016-04-22T08:17:52.315Z,1015.13
2016-04-22T08:18:52.255Z,1015.08
2016-04-22T08:19:52.305Z,1015.18
2016-04-22T08:20:52.370Z,1015.15
2016-04-22T08:21:52.419Z,1015.16
2016-04-22T08:22:52.469Z,1015.09
2016-04-22T08:23:52.518Z,1015.16
2016-04-22T08:24:52.584Z,1015.13
2016-04-22T08:25:52.618Z,1015.17
2016-04-22T08:26:52.667Z,1015.15
2016-04-22T08:27:52.717Z,1015.1
2016-04-22T08:28:52.813Z,1015.12
2016-04-22T08:29:52.815Z,1015.08
2016-04-22T08:30:52.881Z,1015.09
2016-04-22T08:31:52.931Z,1015.13
2016-04-22T08:32:52.980Z,1015.04
2016-04-22T08:33:53.030Z,1015.07
2016-04-22T08:34:53.079Z,1015.08
2016-04-22T08:35:53.128Z,1015.05
2016-04-22T08:36:53.195Z,1015.04
2016-04-22T08:37:53.228Z,1015.08
2016-04-22T08:38:53.293Z,1015.03
2016-04-22T08:39:53.327Z,1015.09
2016-04-22T08:40:53.392Z,1015.05
2016-04-22T08:41:53.442Z,1015.07
2016-04-22T08:42:53.492Z,1015.03
2016-04-22T08:43:53.541Z,1015.03
2016-04-22T08:44:53.591Z,1015
2016-04-22T08:45:53.641Z,1015.03
2016-04-22T08:46:53.690Z,1014.98
2016-04-22T08:47:53.755Z,1014.97
2016-04-22T08:48:53.805Z,1014.98
2016-04-22T08:49:53.854Z,1014.99
2016-04-22T08:50:53.904Z,1015
2016-04-22T08:51:53.953Z,1015.04
2016-04-22T08:52:54.003Z,1014.98
2016-04-22T08:53:54.052Z,1015.05
2016-04-22T08:54:54.102Z,1015
2016-04-22T08:55:54.168Z,1014.98
2016-04-22T08:56:54.217Z,1014.99
2016-04-22T08:57:54.265Z,1014.96
2016-04-22T08:58:54.315Z,1014.91
2016-04-22T08:59:54.366Z,1014.92
2016-04-22T09:00:54.415Z,1014.94
2016-04-22T09:01:54.465Z,1014.89
2016-04-22T09:02:54.514Z,1014.93
2016-04-22T09:03:54.564Z,1014.94
2016-04-22T09:04:54.629Z,1014.93
2016-04-22T09:05:54.662Z,1014.96
2016-04-22T09:06:54.728Z,1014.95
2016-04-22T09:07:54.778Z,1014.91
2016-04-22T09:08:54.828Z,1014.94
2016-04-22T09:09:54.877Z,1014.94
2016-04-22T09:10:54.926Z,1014.9
2016-04-22T09:11:54.975Z,1014.87
2016-04-22T09:12:55.025Z,1014.86
2016-04-22T09:13:55.105Z,1014.84
2016-04-22T09:14:55.140Z,1014.78
2016-04-22T09:15:55.190Z,1014.79
2016-04-22T09:16:55.239Z,1014.8
2016-04-22T09:17:55.289Z,1014.73
2016-04-22T09:18:55.338Z,1014.78
2016-04-22T09:19:55.419Z,1014.76
2016-04-22T09:20:55.438Z,1014.8
2016-04-22T09:21:55.487Z,1014.75
2016-04-22T09:22:55.552Z,1014.76
2016-04-22T09:23:55.593Z,1014.74
2016-04-22T09:24:55.658Z,1014.77
2016-04-22T09:25:55.708Z,1014.73
2016-04-22T09:26:55.758Z,1014.71
2016-04-22T09:27:55.791Z,1014.7
2016-04-22T09:28:55.857Z,1014.68
2016-04-22T09:29:55.906Z,1014.66
2016-04-22T09:30:56.174Z,1014.66
2016-04-22T09:31:56.006Z,1014.63
2016-04-22T09:32:56.055Z,1014.6
2016-04-22T09:33:56.104Z,1014.6
2016-04-22T09:34:56.155Z,1014.58
2016-04-22T09:35:56.220Z,1014.51
2016-04-22T09:36:56.253Z,1014.48
2016-04-22T09:37:56.320Z,1014.48
2016-04-22T09:38:56.369Z,1014.51
2016-04-22T09:39:56.419Z,1014.44
2016-04-22T09:40:56.467Z,1014.45
2016-04-22T09:41:56.517Z,1014.45
2016-04-22T09:42:56.567Z,1014.49
2016-04-22T09:43:56.632Z,1014.54
2016-04-22T09:44:56.682Z,1014.46
2016-04-22T09:45:56.731Z,1014.48
2016-04-22T09:46:56.781Z,1014.47
2016-04-22T09:47:56.831Z,1014.46
2016-04-22T09:48:56.880Z,1014.46
2016-04-22T09:49:56.930Z,1014.41
2016-04-22T09:50:56.979Z,1014.34
2016-04-22T09:51:57.029Z,1014.34
2016-04-22T09:52:57.109Z,1014.29
2016-04-22T09:53:57.127Z,1014.3
2016-04-22T09:54:57.177Z,1014.26
2016-04-22T09:55:57.227Z,1014.28
2016-04-22T09:56:57.293Z,1014.23
2016-04-22T09:57:57.342Z,1014.2
2016-04-22T09:58:57.391Z,1014.23
2016-04-22T09:59:57.440Z,1014.23
2016-04-22T10:00:57.490Z,1014.22
2016-04-22T10:01:57.556Z,1014.22
2016-04-22T10:02:57.605Z,1014.26
2016-04-22T10:03:57.655Z,1014.23
2016-04-22T10:04:57.703Z,1014.18
2016-04-22T10:05:57.754Z,1014.22
2016-04-22T10:06:57.803Z,1014.14
2016-04-22T10:13:36.087Z,1014.11
2016-04-22T10:14:36.137Z,1014.08
2016-04-22T10:15:36.186Z,1014.1
2016-04-22T10:16:36.236Z,1014.03
2016-04-22T10:17:36.285Z,1014.04
2016-04-22T10:18:36.335Z,1014.03
2016-04-22T10:19:36.401Z,1014
2016-04-22T10:20:36.435Z,1013.97
2016-04-22T10:21:36.499Z,1013.98
2016-04-22T10:22:36.549Z,1014
2016-04-22T10:23:36.598Z,1014
2016-04-22T10:24:36.648Z,1014
2016-04-22T10:25:36.698Z,1013.98
2016-04-22T10:26:36.762Z,1013.98
2016-04-22T10:27:36.797Z,1013.96
2016-04-22T10:28:36.862Z,1013.97
2016-04-22T10:29:36.912Z,1013.97
2016-04-22T10:30:36.945Z,1013.94
2016-04-22T10:31:37.011Z,1013.91
2016-04-22T10:32:37.061Z,1013.91
2016-04-22T10:33:37.110Z,1013.91
2016-04-22T10:34:37.160Z,1013.92
2016-04-22T10:35:37.225Z,1013.89
2016-04-22T10:36:37.274Z,1013.89
2016-04-22T10:37:37.324Z,1013.86
2016-04-22T10:38:37.358Z,1013.87
2016-04-22T10:39:37.423Z,1013.85
2016-04-22T10:40:37.472Z,1013.83
2016-04-22T10:41:37.522Z,1013.83
2016-04-22T10:42:37.572Z,1013.81
2016-04-22T10:43:37.637Z,1013.78
2016-04-22T10:44:37.686Z,1013.73
2016-04-22T10:45:37.736Z,1013.71
2016-04-22T10:46:37.785Z,1013.7
2016-04-22T10:47:37.851Z,1013.68
2016-04-22T10:48:37.885Z,1013.66
2016-04-22T10:49:37.934Z,1013.65
2016-04-22T10:50:37.984Z,1013.64
2016-04-22T10:51:38.032Z,1013.66
2016-04-22T10:52:38.098Z,1013.62
2016-04-22T10:53:38.132Z,1013.59
2016-04-22T10:54:38.198Z,1013.59
2016-04-22T10:55:38.247Z,1013.59
2016-04-22T10:56:38.296Z,1013.58
2016-04-22T10:57:38.346Z,1013.56
2016-04-22T10:58:38.395Z,1013.55
2016-04-22T10:59:38.461Z,1013.52
2016-04-22T11:00:38.495Z,1013.51
2016-04-22T11:01:38.560Z,1013.56
2016-04-22T11:02:38.594Z,1013.51
2016-04-22T11:03:38.659Z,1013.47
2016-04-22T11:04:38.708Z,1013.45
2016-04-22T11:05:38.759Z,1013.48
2016-04-22T11:06:38.809Z,1013.42
2016-04-22T11:07:38.873Z,1013.42
2016-04-22T11:08:38.907Z,1013.43
2016-04-22T11:09:38.972Z,1013.45
2016-04-22T11:10:39.022Z,1013.38
2016-04-22T11:11:39.071Z,1013.33
2016-04-22T11:12:39.121Z,1013.37
2016-04-22T11:13:39.171Z,1013.47
2016-04-22T11:14:39.220Z,1013.41
2016-04-22T11:15:39.269Z,1013.39
2016-04-22T11:16:39.335Z,1013.39
2016-04-22T11:17:39.368Z,1013.37
2016-04-22T11:18:39.434Z,1013.34
2016-04-22T11:19:39.483Z,1013.36
2016-04-22T11:20:39.533Z,1013.37
2016-04-22T11:21:39.575Z,1013.37
2016-04-22T11:22:39.623Z,1013.4
2016-04-22T11:23:39.673Z,1013.41
2016-04-22T11:24:39.723Z,1013.39
2016-04-22T11:25:39.787Z,1013.35
2016-04-22T11:26:39.837Z,1013.3
2016-04-22T11:27:39.887Z,1013.29
2016-04-22T11:28:39.937Z,1013.3
2016-04-22T11:29:39.986Z,1013.31
2016-04-22T11:30:40.051Z,1013.33
2016-04-22T11:31:40.086Z,1013.32
2016-04-22T11:32:40.136Z,1013.32
2016-04-22T11:33:40.200Z,1013.3
2016-04-22T11:34:40.249Z,1013.31
2016-04-22T11:35:40.300Z,1013.31
2016-04-22T11:36:40.349Z,1013.32
2016-04-22T11:37:40.413Z,1013.27
2016-04-22T11:38:40.447Z,1013.26
2016-04-22T11:39:40.497Z,1013.24
2016-04-22T11:40:40.547Z,1013.25
2016-04-22T11:41:40.612Z,1013.28
2016-04-22T11:42:40.662Z,1013.23
2016-04-22T11:43:40.696Z,1013.2
2016-04-22T11:44:40.761Z,1013.25
2016-04-22T11:45:40.810Z,1013.23
2016-04-22T11:46:40.859Z,1013.21
2016-04-22T11:47:40.909Z,1013.21
2016-04-22T11:48:40.959Z,1013.2
2016-04-22T11:49:41.024Z,1013.2
2016-04-22T11:50:41.073Z,1013.17
2016-04-22T11:51:41.123Z,1013.17
2016-04-22T11:52:41.173Z,1013.15
2016-04-22T11:53:41.223Z,1013.13
2016-04-22T11:54:41.272Z,1013.14
2016-04-22T11:55:41.322Z,1013.11
2016-04-22T11:56:41.370Z,1013.1
2016-04-22T11:57:41.437Z,1013.06
2016-04-22T11:58:41.486Z,1013
2016-04-22T11:59:41.536Z,1013.01
2016-04-22T12:00:41.586Z,1012.98
2016-04-22T12:01:41.634Z,1012.94
2016-04-22T12:02:41.684Z,1012.92
2016-04-22T12:03:41.734Z,1012.94
2016-04-22T12:04:41.783Z,1012.95
2016-04-22T12:05:41.833Z,1012.91
2016-04-22T12:06:41.883Z,1012.87
2016-04-22T12:07:41.947Z,1012.87
2016-04-22T12:08:41.997Z,1012.88
2016-04-22T12:09:42.047Z,1012.87
2016-04-22T12:10:42.096Z,1012.89
2016-04-22T12:11:42.146Z,1012.86
2016-04-22T12:12:42.195Z,1012.83
2016-04-22T12:13:42.260Z,1012.75
2016-04-22T12:14:42.310Z,1012.82